createdAt,value
2018-02-13T00:02:21.986Z,12.60
2018-02-13T00:04:52.783Z,12.40
2018-02-13T00:07:19.885Z,11.40
2018-02-13T00:09:46.665Z,13.07
2018-02-13T00:12:13.397Z,11.87
2018-02-13T00:14:40.141Z,12.73
2018-02-13T00:17:08.340Z,12.90
2018-02-13T00:19:35.257Z,12.47
2018-02-13T00:22:02.444Z,12.37
2018-02-13T00:24:29.242Z,12.70
2018-02-13T00:26:56.023Z,14.10
2018-02-13T00:29:22.770Z,12.40
2018-02-13T00:31:49.515Z,12.70
2018-02-13T00:34:16.282Z,13.30
2018-02-13T00:36:43.038Z,12.40
2018-02-13T00:39:09.850Z,12.97
2018-02-13T00:41:36.578Z,14.13
2018-02-13T00:44:03.465Z,13.47
2018-02-13T00:46:30.225Z,13.20
2018-02-13T00:48:56.986Z,11.57
2018-02-13T00:51:23.709Z,14.27
2018-02-13T00:53:50.467Z,13.80
2018-02-13T00:56:17.243Z,13.10
2018-02-13T00:58:43.991Z,13.73
2018-02-13T01:01:10.773Z,13.87
2018-02-13T01:03:37.556Z,13.67
2018-02-13T01:06:04.293Z,13.63
2018-02-13T01:08:31.033Z,12.87
2018-02-13T01:10:57.842Z,12.90
2018-02-13T01:13:24.674Z,13.03
2018-02-13T01:15:51.462Z,15.20
2018-02-13T01:18:18.212Z,14.07
2018-02-13T01:20:45.103Z,13.63
2018-02-13T01:23:11.861Z,14.07
2018-02-13T01:25:38.611Z,13.03
2018-02-13T01:28:05.426Z,12.87
2018-02-13T01:30:32.478Z,12.53
2018-02-13T01:32:59.303Z,11.87
2018-02-13T01:35:26.153Z,14.47
2018-02-13T01:37:53.010Z,13.40
2018-02-13T01:40:19.865Z,12.10
2018-02-13T01:42:46.669Z,12.27
2018-02-13T01:45:13.575Z,12.87
2018-02-13T01:47:40.386Z,12.60
2018-02-13T01:50:13.277Z,11.83
2018-02-13T01:52:40.053Z,12.77
2018-02-13T01:55:06.918Z,13.20
2018-02-13T01:57:33.701Z,13.40
2018-02-13T02:00:00.474Z,13.17
2018-02-13T02:02:27.357Z,12.03
2018-02-13T02:04:54.138Z,13.00
2018-02-13T02:07:20.917Z,13.13
2018-02-13T02:09:47.663Z,13.23
2018-02-13T02:12:14.593Z,14.73
2018-02-13T02:14:41.352Z,14.47
2018-02-13T02:17:08.125Z,13.53
2018-02-13T02:19:34.878Z,13.00
2018-02-13T02:22:01.623Z,13.37
2018-02-13T02:24:28.401Z,13.90
2018-02-13T02:26:55.270Z,14.57
2018-02-13T02:29:22.013Z,14.63
2018-02-13T02:31:48.798Z,13.60
2018-02-13T02:34:15.560Z,15.13
2018-02-13T02:36:42.323Z,13.83
2018-02-13T02:39:09.073Z,13.00
2018-02-13T02:41:35.824Z,12.90
2018-02-13T02:44:02.654Z,13.87
2018-02-13T02:46:29.434Z,13.73
2018-02-13T02:48:56.397Z,13.50
2018-02-13T02:51:23.342Z,13.47
2018-02-13T02:53:50.171Z,14.70
2018-02-13T02:56:17.006Z,14.17
2018-02-13T02:58:43.905Z,13.10
2018-02-13T03:01:10.868Z,14.00
2018-02-13T03:03:37.826Z,12.90
2018-02-13T03:06:04.680Z,13.97
2018-02-13T03:08:31.557Z,12.57
2018-02-13T03:10:58.634Z,12.97
2018-02-13T03:13:26.249Z,12.57
2018-02-13T03:15:53.034Z,13.67
2018-02-13T03:18:19.947Z,14.50
2018-02-13T03:20:46.753Z,13.80
2018-02-13T03:23:13.615Z,13.47
2018-02-13T03:25:40.545Z,15.03
2018-02-13T03:28:07.385Z,12.53
2018-02-13T03:30:34.451Z,13.03
2018-02-13T03:33:01.288Z,12.33
2018-02-13T03:35:28.124Z,13.40
2018-02-13T03:37:54.987Z,12.43
2018-02-13T03:40:21.965Z,11.80
2018-02-13T03:42:48.895Z,12.07
2018-02-13T03:45:15.838Z,12.67
2018-02-13T03:47:42.723Z,13.33
2018-02-13T03:50:09.711Z,12.50
2018-02-13T03:52:36.584Z,12.40
2018-02-13T03:55:03.419Z,12.67
2018-02-13T03:57:30.261Z,13.67
2018-02-13T03:59:57.052Z,12.63
2018-02-13T04:02:23.822Z,13.00
2018-02-13T04:04:50.652Z,12.37
2018-02-13T04:07:17.508Z,12.37
2018-02-13T04:09:44.292Z,12.87
2018-02-13T04:12:11.102Z,12.93
2018-02-13T04:14:37.849Z,12.77
2018-02-13T04:17:04.609Z,13.60
2018-02-13T04:19:31.385Z,12.70
2018-02-13T04:21:58.138Z,13.70
2018-02-13T04:24:24.889Z,14.03
2018-02-13T04:26:51.650Z,13.87
2018-02-13T04:29:18.390Z,13.57
2018-02-13T04:31:45.381Z,13.97
2018-02-13T04:34:12.166Z,13.73
2018-02-13T04:36:38.951Z,12.40
2018-02-13T04:39:05.714Z,13.10
2018-02-13T04:41:32.471Z,13.90
2018-02-13T04:43:59.225Z,13.67
2018-02-13T04:46:26.005Z,13.20
2018-02-13T04:48:52.980Z,14.60
2018-02-13T04:51:19.733Z,14.03
2018-02-13T04:53:46.487Z,13.40
2018-02-13T04:56:13.262Z,14.37
2018-02-13T04:58:40.004Z,15.27
2018-02-13T05:01:07.002Z,15.10
2018-02-13T05:03:33.773Z,14.50
2018-02-13T05:06:00.530Z,15.30
2018-02-13T05:08:27.310Z,15.57
2018-02-13T05:10:54.053Z,16.07
2018-02-13T05:13:20.830Z,15.50
2018-02-13T05:15:47.619Z,15.47
2018-02-13T05:18:14.374Z,15.40
2018-02-13T05:20:41.133Z,15.07
2018-02-13T05:23:07.925Z,15.87
2018-02-13T05:25:34.674Z,15.97
2018-02-13T05:28:01.435Z,17.37
2018-02-13T05:30:28.181Z,19.93
2018-02-13T05:32:54.961Z,17.40
2018-02-13T05:35:21.724Z,17.60
2018-02-13T05:37:48.491Z,14.23
2018-02-13T05:40:15.249Z,15.20
2018-02-13T05:42:42.070Z,14.43
2018-02-13T05:45:08.843Z,14.30
2018-02-13T05:47:35.594Z,15.30
2018-02-13T05:50:02.357Z,15.47
2018-02-13T05:52:29.114Z,14.77
2018-02-13T05:54:55.873Z,14.73
2018-02-13T05:57:22.736Z,13.30
2018-02-13T05:59:49.529Z,14.23
2018-02-13T06:02:16.323Z,13.37
2018-02-13T06:04:43.080Z,13.83
2018-02-13T06:07:09.987Z,15.60
2018-02-13T06:09:36.822Z,14.97
2018-02-13T06:12:03.569Z,17.63
2018-02-13T06:14:30.346Z,19.40
2018-02-13T06:16:57.108Z,16.10
2018-02-13T06:19:23.873Z,20.27
2018-02-13T06:21:50.633Z,19.37
2018-02-13T06:24:17.380Z,14.40
2018-02-13T06:26:44.169Z,14.10
2018-02-13T06:29:10.943Z,13.40
2018-02-13T06:31:37.733Z,15.70
2018-02-13T06:34:04.515Z,13.80
2018-02-13T06:36:31.310Z,14.50
2018-02-13T06:38:58.106Z,16.77
2018-02-13T06:41:24.854Z,17.87
2018-02-13T06:43:51.642Z,17.83
2018-02-13T06:46:18.630Z,17.57
2018-02-13T06:48:45.399Z,16.80
2018-02-13T06:51:12.173Z,17.33
2018-02-13T06:53:38.957Z,18.03
2018-02-13T06:56:05.720Z,20.50
2018-02-13T06:58:33.322Z,18.23
2018-02-13T07:01:00.094Z,19.07
2018-02-13T07:03:26.855Z,19.27
2018-02-13T07:05:53.613Z,20.27
2018-02-13T07:08:20.415Z,23.30
2018-02-13T07:10:47.179Z,24.53
2018-02-13T07:13:13.937Z,22.20
2018-02-13T07:15:40.862Z,23.30
2018-02-13T07:18:07.634Z,23.00
2018-02-13T07:20:34.432Z,24.83
2018-02-13T07:23:01.222Z,23.03
2018-02-13T07:25:27.996Z,21.53
2018-02-13T07:27:54.794Z,22.43
2018-02-13T07:30:21.571Z,21.23
2018-02-13T07:32:48.364Z,21.00
2018-02-13T07:35:15.126Z,21.70
2018-02-13T07:37:41.897Z,21.33
2018-02-13T07:40:09.364Z,17.13
2018-02-13T07:42:36.237Z,19.10
2018-02-13T07:45:03.345Z,18.77
2018-02-13T07:47:30.099Z,17.57
2018-02-13T07:49:56.872Z,16.07
2018-02-13T07:52:24.265Z,16.90
2018-02-13T07:54:51.078Z,17.60
2018-02-13T07:57:17.877Z,17.10
2018-02-13T07:59:44.757Z,16.10
2018-02-13T08:02:12.284Z,15.07
2018-02-13T08:04:39.085Z,15.33
2018-02-13T08:07:06.064Z,15.97
2018-02-13T08:09:32.808Z,15.60
2018-02-13T08:11:59.590Z,15.50
2018-02-13T08:14:26.547Z,16.23
2018-02-13T08:16:53.588Z,15.80
2018-02-13T08:19:22.129Z,15.03
2018-02-13T08:21:48.901Z,15.57
2018-02-13T08:24:16.513Z,15.77
2018-02-13T08:26:43.277Z,14.43
2018-02-13T08:29:10.075Z,14.53
2018-02-13T08:31:36.864Z,16.10
2018-02-13T08:34:03.666Z,12.33
2018-02-13T08:36:30.446Z,13.60
2018-02-13T08:38:57.219Z,14.20
2018-02-13T08:41:24.050Z,13.20
2018-02-13T08:43:50.818Z,15.00
2018-02-13T08:46:17.618Z,13.83
2018-02-13T08:48:44.422Z,15.93
2018-02-13T08:51:11.239Z,13.37
2018-02-13T08:53:38.931Z,14.60
2018-02-13T08:56:05.740Z,14.20
2018-02-13T08:58:32.587Z,12.87
2018-02-13T09:00:59.454Z,12.13
2018-02-13T09:03:26.259Z,12.53
2018-02-13T09:05:53.040Z,13.83
2018-02-13T09:08:20.112Z,14.30
2018-02-13T09:10:47.243Z,14.77
2018-02-13T09:13:14.059Z,15.33
2018-02-13T09:15:40.927Z,16.67
2018-02-13T09:18:07.758Z,16.07
2018-02-13T09:20:34.711Z,15.13
2018-02-13T09:23:01.673Z,16.13
2018-02-13T09:25:31.491Z,14.37
2018-02-13T09:27:59.038Z,16.30
2018-02-13T09:30:25.803Z,16.97
2018-02-13T09:32:52.581Z,17.43
2018-02-13T09:35:19.337Z,15.30
2018-02-13T09:37:46.284Z,17.03
2018-02-13T09:40:13.032Z,16.63
2018-02-13T09:42:40.272Z,15.93
2018-02-13T09:45:07.051Z,17.53
2018-02-13T09:47:34.738Z,17.87
2018-02-13T09:50:01.500Z,17.47
2018-02-13T09:52:29.293Z,19.73
2018-02-13T09:54:56.055Z,18.10
2018-02-13T09:57:22.821Z,18.57
2018-02-13T09:59:49.574Z,18.17
2018-02-13T10:02:16.351Z,18.37
2018-02-13T10:04:43.333Z,17.53
2018-02-13T10:07:10.874Z,18.80
2018-02-13T10:09:37.659Z,18.40
2018-02-13T10:12:04.417Z,17.77
2018-02-13T10:14:31.176Z,17.93
2018-02-13T10:16:58.048Z,15.17
2018-02-13T10:19:24.826Z,13.97
2018-02-13T10:21:51.601Z,13.03
2018-02-13T10:24:18.379Z,9.37
2018-02-13T10:26:45.134Z,9.47
2018-02-13T10:29:11.939Z,10.17
2018-02-13T10:31:38.698Z,10.87
2018-02-13T10:34:06.443Z,11.23
2018-02-13T10:36:33.306Z,8.73
2018-02-13T10:39:00.070Z,10.20
2018-02-13T10:41:26.826Z,10.00
2018-02-13T10:43:53.579Z,10.97
2018-02-13T10:46:20.374Z,9.43
2018-02-13T10:48:47.905Z,10.27
2018-02-13T10:51:14.825Z,9.53
2018-02-13T10:53:41.589Z,8.57
2018-02-13T10:56:10.022Z,8.10
2018-02-13T10:58:36.800Z,8.47
2018-02-13T11:01:09.614Z,9.73
2018-02-13T11:03:36.386Z,9.63
2018-02-13T11:06:03.157Z,8.57
2018-02-13T11:08:29.937Z,11.77
2018-02-13T11:10:56.694Z,10.17
2018-02-13T11:13:23.614Z,9.20
2018-02-13T11:15:50.369Z,8.83
2018-02-13T11:18:17.327Z,9.13
2018-02-13T11:20:44.174Z,9.70
2018-02-13T11:23:11.007Z,9.90
2018-02-13T11:25:37.798Z,11.20
2018-02-13T11:28:04.573Z,8.90
2018-02-13T11:30:31.348Z,8.60
2018-02-13T11:32:58.175Z,9.93
2018-02-13T11:35:24.932Z,8.93
2018-02-13T11:37:51.669Z,9.33
2018-02-13T11:40:18.409Z,9.00
2018-02-13T11:42:45.725Z,8.00
2018-02-13T11:45:12.485Z,8.13
2018-02-13T11:47:39.280Z,8.33
2018-02-13T11:50:06.165Z,8.63
2018-02-13T11:52:33.114Z,8.73
2018-02-13T11:55:00.063Z,9.00
2018-02-13T11:57:26.821Z,7.90
2018-02-13T11:59:53.676Z,8.97
2018-02-13T12:02:20.421Z,9.13
2018-02-13T12:04:47.201Z,8.10
2018-02-13T12:07:13.930Z,7.87
2018-02-13T12:09:40.911Z,8.37
2018-02-13T12:12:07.704Z,7.33
2018-02-13T12:14:34.438Z,8.97
2018-02-13T12:17:01.202Z,8.30
2018-02-13T12:19:27.978Z,7.80
2018-02-13T12:21:54.969Z,7.07
2018-02-13T12:24:22.147Z,8.03
2018-02-13T12:26:48.965Z,7.50
2018-02-13T12:29:15.752Z,7.20
2018-02-13T12:31:42.539Z,7.77
2018-02-13T12:34:09.394Z,9.23
2018-02-13T12:36:36.152Z,7.80
2018-02-13T12:39:03.109Z,8.77
2018-02-13T12:41:29.914Z,6.53
2018-02-13T12:43:56.684Z,7.27
2018-02-13T12:46:23.503Z,7.30
2018-02-13T12:48:50.273Z,7.23
2018-02-13T12:51:17.322Z,8.80
2018-02-13T12:53:44.160Z,9.23
2018-02-13T12:56:11.022Z,9.30
2018-02-13T12:58:37.843Z,8.80
2018-02-13T13:01:04.610Z,7.50
2018-02-13T13:03:31.464Z,6.70
2018-02-13T13:05:58.432Z,7.00
2018-02-13T13:08:25.278Z,7.80
2018-02-13T13:10:52.171Z,7.27
2018-02-13T13:13:19.173Z,7.07
2018-02-13T13:15:46.142Z,8.00
2018-02-13T13:18:13.018Z,6.37
2018-02-13T13:20:40.025Z,8.17
2018-02-13T13:23:06.878Z,10.07
2018-02-13T13:25:33.719Z,7.63
2018-02-13T13:28:00.737Z,7.47
2018-02-13T13:30:27.643Z,6.87
2018-02-13T13:32:55.145Z,7.23
2018-02-13T13:35:22.002Z,7.13
2018-02-13T13:37:49.084Z,7.17
2018-02-13T13:40:15.944Z,7.10
2018-02-13T13:42:42.852Z,6.67
2018-02-13T13:45:09.721Z,7.20
2018-02-13T13:47:36.594Z,6.70
2018-02-13T13:50:03.520Z,5.67
2018-02-13T13:52:30.536Z,6.50
2018-02-13T13:54:57.401Z,6.43
2018-02-13T13:57:24.278Z,5.70
2018-02-13T13:59:51.100Z,5.93
2018-02-13T14:02:18.010Z,8.00
2018-02-13T14:04:44.807Z,5.93
2018-02-13T14:07:11.614Z,5.97
2018-02-13T14:09:38.423Z,5.87
2018-02-13T14:12:05.242Z,5.70
2018-02-13T14:14:32.032Z,6.37
2018-02-13T14:16:58.793Z,5.40
2018-02-13T14:19:26.365Z,6.93
2018-02-13T14:21:53.145Z,6.20
2018-02-13T14:24:19.962Z,6.33
2018-02-13T14:26:46.761Z,6.00
2018-02-13T14:29:13.546Z,6.70
2018-02-13T14:31:40.306Z,5.90
2018-02-13T14:34:07.058Z,5.60
2018-02-13T14:36:33.942Z,6.70
2018-02-13T14:39:00.694Z,6.03
2018-02-13T14:41:28.373Z,6.53
2018-02-13T14:43:55.151Z,6.80
2018-02-13T14:46:23.064Z,6.50
2018-02-13T14:48:49.948Z,6.33
2018-02-13T14:51:16.790Z,6.47
2018-02-13T14:53:43.778Z,6.47
2018-02-13T14:56:11.716Z,7.80
2018-02-13T14:58:38.540Z,9.00
2018-02-13T15:01:05.932Z,7.23
2018-02-13T15:03:33.525Z,7.50
2018-02-13T15:06:00.502Z,7.07
2018-02-13T15:08:28.087Z,7.60
2018-02-13T15:10:55.087Z,7.17
2018-02-13T15:13:22.041Z,7.63
2018-02-13T15:15:49.414Z,7.67
2018-02-13T15:18:16.897Z,8.30
2018-02-13T15:20:43.760Z,7.57
2018-02-13T15:23:10.714Z,7.10
2018-02-13T15:25:38.140Z,7.03
2018-02-13T15:28:05.085Z,6.90
2018-02-13T15:30:32.108Z,7.00
2018-02-13T15:32:58.977Z,6.80
2018-02-13T15:35:25.858Z,6.93
2018-02-13T15:37:52.704Z,6.90
2018-02-13T15:40:19.786Z,7.00
2018-02-13T15:42:46.614Z,6.70
2018-02-13T15:45:13.511Z,7.70
2018-02-13T15:47:41.102Z,10.53
2018-02-13T15:50:07.933Z,35.90
2018-02-13T15:52:34.775Z,28.93
2018-02-13T15:55:01.729Z,24.90
2018-02-13T15:57:28.558Z,14.13
2018-02-13T15:59:55.455Z,16.90
2018-02-13T16:02:22.555Z,19.93
2018-02-13T16:04:49.443Z,19.23
2018-02-13T16:07:16.309Z,9.87
2018-02-13T16:09:43.240Z,9.80
2018-02-13T16:12:10.274Z,13.70
2018-02-13T16:14:38.284Z,11.17
2018-02-13T16:17:05.113Z,24.10
2018-02-13T16:19:31.923Z,112.50
2018-02-13T16:21:58.853Z,36.57
2018-02-13T16:24:25.723Z,175.60
2018-02-13T16:26:52.541Z,19.07
2018-02-13T16:29:19.525Z,15.87
2018-02-13T16:31:46.418Z,22.20
2018-02-13T16:34:14.246Z,36.90
2018-02-13T16:36:41.050Z,62.40
2018-02-13T16:39:08.042Z,65.60
2018-02-13T16:41:35.094Z,165.87
2018-02-13T16:44:01.916Z,154.90
2018-02-13T16:46:28.728Z,146.43
2018-02-13T16:48:55.607Z,61.47
2018-02-13T16:51:22.499Z,40.47
2018-02-13T16:53:50.853Z,56.97
2018-02-13T16:56:17.688Z,41.47
2018-02-13T16:58:44.633Z,70.40
2018-02-13T17:01:11.440Z,71.97
2018-02-13T17:03:38.291Z,36.63
2018-02-13T17:06:05.102Z,68.07
2018-02-13T17:08:32.848Z,47.03
2018-02-13T17:10:59.618Z,51.57
2018-02-13T17:13:26.453Z,92.93
2018-02-13T17:15:53.249Z,67.20
2018-02-13T17:18:20.148Z,55.03
2018-02-13T17:20:47.095Z,54.60
2018-02-13T17:23:14.939Z,51.13
2018-02-13T17:25:41.724Z,53.30
2018-02-13T17:28:08.586Z,48.63
2018-02-13T17:30:35.402Z,53.67
2018-02-13T17:33:02.198Z,44.37
2018-02-13T17:35:29.027Z,38.37
2018-02-13T17:37:55.869Z,39.80
2018-02-13T17:40:22.729Z,31.43
2018-02-13T17:42:49.572Z,28.30
2018-02-13T17:45:16.551Z,30.13
2018-02-13T17:47:43.446Z,30.97
2018-02-13T17:50:11.110Z,28.97
2018-02-13T17:52:37.985Z,27.47
2018-02-13T17:55:04.840Z,30.27
2018-02-13T17:57:31.770Z,28.57
2018-02-13T17:59:59.553Z,27.70
2018-02-13T18:02:26.467Z,28.90
2018-02-13T18:04:53.235Z,28.70
2018-02-13T18:07:20.325Z,29.60
2018-02-13T18:09:47.246Z,41.00
2018-02-13T18:12:17.157Z,58.70
2018-02-13T18:14:44.068Z,52.77
2018-02-13T18:17:10.979Z,59.03
2018-02-13T18:32:38.259Z,36.60
2018-02-13T18:35:06.570Z,40.97
2018-02-13T18:37:33.661Z,36.40
2018-02-13T18:40:00.546Z,35.60
2018-02-13T18:42:28.694Z,44.23
2018-02-13T18:44:55.510Z,70.20
2018-02-13T18:47:22.298Z,46.50
2018-02-13T18:49:49.087Z,48.90
2018-02-13T18:54:42.643Z,39.17
2018-02-13T18:57:09.533Z,43.23
2018-02-13T18:59:36.303Z,49.63
2018-02-13T19:02:03.263Z,48.00
2018-02-13T19:04:30.057Z,43.60
2018-02-13T19:06:56.818Z,36.50
2018-02-13T19:09:23.613Z,35.00
2018-02-13T19:11:50.405Z,35.20
2018-02-13T19:14:17.207Z,38.47
2018-02-13T19:19:10.743Z,40.53
2018-02-13T19:21:37.670Z,77.30
2018-02-13T19:24:04.428Z,81.67
2018-02-13T19:26:31.209Z,65.67
2018-02-13T19:28:58.018Z,55.63
2018-02-13T19:31:24.977Z,60.97
2018-02-13T19:33:51.834Z,56.87
2018-02-13T19:36:18.590Z,78.03
2018-02-13T19:38:47.378Z,147.00
2018-02-13T19:41:14.286Z,110.07
2018-02-13T19:43:42.158Z,119.67
2018-02-13T19:46:08.941Z,180.87
2018-02-13T19:48:37.523Z,238.53
2018-02-13T19:51:04.403Z,72.10
2018-02-13T19:53:31.224Z,46.90
2018-02-13T19:55:58.012Z,46.10
2018-02-13T19:58:24.924Z,66.53
2018-02-13T20:00:51.727Z,73.27
2018-02-13T20:03:19.126Z,94.23
2018-02-13T20:05:49.513Z,119.77
2018-02-13T20:08:16.664Z,114.83
2018-02-13T20:10:43.443Z,97.60
2018-02-13T20:13:10.626Z,79.03
2018-02-13T20:15:37.403Z,89.03
2018-02-13T20:18:04.213Z,99.43
2018-02-13T20:20:31.051Z,214.07
2018-02-13T20:22:57.920Z,188.37
2018-02-13T20:25:25.227Z,136.20
2018-02-13T20:27:53.102Z,100.37
2018-02-13T20:30:19.894Z,80.93
2018-02-13T20:32:46.699Z,68.27
2018-02-13T20:35:13.520Z,67.60
2018-02-13T20:37:40.530Z,53.20
2018-02-13T20:40:07.281Z,48.47
2018-02-13T20:42:34.237Z,49.53
2018-02-13T20:45:01.045Z,51.60
2018-02-13T20:47:27.992Z,62.83
2018-02-13T20:49:54.763Z,65.83
2018-02-13T20:52:21.540Z,63.93
2018-02-13T20:54:48.330Z,73.27
2018-02-13T20:57:15.090Z,86.80
2018-02-13T20:59:41.908Z,72.60
2018-02-13T21:02:08.851Z,90.70
2018-02-13T21:04:35.694Z,168.80
2018-02-13T21:07:02.524Z,66.60
2018-02-13T21:09:29.601Z,60.90
2018-02-13T21:11:56.438Z,56.57
2018-02-13T21:14:23.289Z,63.30
2018-02-13T21:16:50.124Z,71.73
2018-02-13T21:19:17.014Z,77.97
2018-02-13T21:21:43.813Z,80.70
2018-02-13T21:24:10.714Z,65.13
2018-02-13T21:26:37.890Z,55.47
2018-02-13T21:29:04.673Z,70.10
2018-02-13T21:31:31.478Z,75.37
2018-02-13T21:33:59.559Z,68.77
2018-02-13T21:36:27.064Z,69.23
2018-02-13T21:38:53.817Z,72.57
2018-02-13T21:41:20.601Z,61.80
2018-02-13T21:43:47.372Z,77.20
2018-02-13T21:46:14.146Z,71.60
2018-02-13T21:48:41.038Z,63.43
2018-02-13T21:51:07.844Z,73.80
2018-02-13T21:53:35.222Z,86.07
2018-02-13T21:56:02.097Z,67.67
2018-02-13T21:58:29.298Z,62.33
2018-02-13T22:00:56.092Z,58.60
2018-02-13T22:03:22.857Z,74.43
2018-02-13T22:05:50.299Z,59.63
2018-02-13T22:08:17.087Z,56.80
2018-02-13T22:10:43.866Z,55.77
2018-02-13T22:13:10.639Z,59.67
2018-02-13T22:15:37.382Z,62.60
2018-02-13T22:18:04.164Z,57.27
2018-02-13T22:20:30.934Z,60.33
2018-02-13T22:22:57.701Z,58.40
2018-02-13T22:25:27.829Z,61.27
2018-02-13T22:27:54.612Z,55.37
2018-02-13T22:30:21.425Z,55.80
2018-02-13T22:32:48.332Z,64.00
2018-02-13T22:35:15.271Z,69.90
2018-02-13T22:37:42.071Z,69.53
2018-02-13T22:40:08.837Z,68.53
2018-02-13T22:42:35.826Z,73.13
2018-02-13T22:45:02.682Z,73.93
2018-02-13T22:47:31.014Z,79.10
2018-02-13T22:49:57.841Z,73.07
2018-02-13T22:52:24.784Z,81.27
2018-02-13T22:54:51.581Z,60.47
2018-02-13T22:57:19.434Z,72.90
2018-02-13T22:59:47.045Z,62.70
2018-02-13T23:02:13.932Z,64.70
2018-02-13T23:04:40.739Z,69.27
2018-02-13T23:07:07.496Z,65.33
2018-02-13T23:09:44.506Z,69.43
2018-02-13T23:12:11.400Z,70.10
2018-02-13T23:17:22.590Z,71.07
2018-02-13T23:19:49.382Z,69.27
2018-02-13T23:22:16.144Z,64.83
2018-02-13T23:24:42.913Z,59.70
2018-02-13T23:27:09.996Z,43.07
2018-02-13T23:29:36.794Z,45.67
2018-02-13T23:32:03.610Z,56.43
2018-02-13T23:34:30.816Z,53.83
2018-02-13T23:36:57.578Z,47.80
2018-02-13T23:39:24.368Z,47.33
2018-02-13T23:41:51.166Z,48.47
2018-02-13T23:44:18.134Z,49.27
2018-02-13T23:46:45.094Z,50.77
2018-02-13T23:49:11.855Z,56.10
2018-02-13T23:51:38.615Z,54.90
2018-02-13T23:54:05.394Z,54.33
2018-02-13T23:56:32.187Z,58.50
2018-02-13T23:58:58.947Z,49.03
